Terminal Aerodrome Forecast
Issued by NWS Wilmington, OH

Current Version | Previous Version | Text Only | Print | Product List | Glossary Off
Versions: 1 2 3 4 5 6 7 8 9 10 11 12 13 14 15 16 17 18

000
FTUS41 KILN 301700
TAFILN
TAF
KILN 301732Z 3018/0118 36011KT P6SM VCSH BKN040
     FM010000 36010KT P6SM BKN035
     FM010300 34010KT P6SM OVC015
     FM011100 01010KT P6SM SCT025
     FM011500 35011G19KT P6SM BKN035=

USA.gov is the U.S. government's official web portal to all federal, state and local government web resources and services.